Time;durP1;ratioP1;P1;durP2;ratioP2;P2;SDS_P1;SDS_P2;PMS_P1;PMS_P2;Temp;Humidity;BMP_temperature;BMP_pressure;BME280_temperature;BME280_humidity;BME280_pressure;Samples;Min_cycle;Max_cycle;Signal;HPM_P1;HPM_P2
2021/09/27 00:01:28;;;;;;;23.95;8.98;;;;;;;;;;5034496;28;20038;-76
2021/09/27 00:03:56;;;;;;;18.42;9.23;;;;;;;;;;5033838;28;20041;-76
2021/09/27 00:06:25;;;;;;;19.52;9.57;;;;;;;;;;5035054;28;20042;-75
2021/09/27 00:08:55;;;;;;;15.95;8.85;;;;;;;;;;5030205;28;20047;-76
2021/09/27 00:11:27;;;;;;;20.85;9.07;;;;;;;;;;5029979;28;20045;-75
2021/09/27 00:13:55;;;;;;;20.23;9.90;;;;;;;;;;5033619;28;20041;-75
2021/09/27 00:16:26;;;;;;;;;;;;;;;;;;5034924;28;20120;-76
2021/09/27 00:18:55;;;;;;;17.13;9.43;;;;;;;;;;5034723;28;19921;-76
2021/09/27 00:21:24;;;;;;;18.45;9.32;;;;;;;;;;5034266;28;20038;-76
2021/09/27 00:23:57;;;;;;;20.38;9.70;;;;;;;;;;5034462;28;20045;-75
2021/09/27 00:26:27;;;;;;;23.88;9.80;;;;;;;;;;5016738;28;20045;-77
2021/09/27 00:28:55;;;;;;;27.95;10.45;;;;;;;;;;5032834;28;20132;-76
2021/09/27 00:31:26;;;;;;;27.35;10.07;;;;;;;;;;5033728;28;20081;-75
2021/09/27 00:33:57;;;;;;;19.27;9.50;;;;;;;;;;5016266;28;20408;-75
2021/09/27 00:36:28;;;;;;;17.92;8.98;;;;;;;;;;5033680;28;20041;-76
2021/09/27 00:38:56;;;;;;;26.50;9.95;;;;;;;;;;5033156;28;20400;-76
2021/09/27 00:41:27;;;;;;;21.08;9.77;;;;;;;;;;5016338;28;20132;-75
2021/09/27 00:43:55;;;;;;;16.38;9.18;;;;;;;;;;5033061;28;20132;-76
2021/09/27 00:46:25;;;;;;;18.42;9.18;;;;;;;;;;5033820;28;20396;-75
2021/09/27 00:48:54;;;;;;;19.67;9.50;;;;;;;;;;5034009;28;20076;-77
2021/09/27 00:51:27;;;;;;;25.40;9.25;;;;;;;;;;5033923;28;20124;-75
2021/09/27 00:53:56;;;;;;;22.17;9.48;;;;;;;;;;5032275;28;20049;-76
2021/09/27 00:56:26;;;;;;;19.45;9.32;;;;;;;;;;5032603;28;20053;-75
2021/09/27 00:58:56;;;;;;;20.55;10.02;;;;;;;;;;5033437;28;20129;-77
2021/09/27 01:01:25;;;;;;;28.17;9.38;;;;;;;;;;5032762;28;20033;-75
2021/09/27 01:03:54;;;;;;;20.42;8.80;;;;;;;;;;5031643;28;20037;-75
2021/09/27 01:06:41;;;;;;;19.48;9.07;;;;;;;;;;5033057;28;20508;-76
2021/09/27 01:09:15;;;;;;;21.85;9.57;;;;;;;;;;5033324;28;20049;-75
2021/09/27 01:12:06;;;;;;;19.55;9.70;;;;;;;;;;5033423;28;20515;-77
2021/09/27 01:14:53;;;;;;;15.43;8.65;;;;;;;;;;5032853;28;20052;-75
2021/09/27 01:17:30;;;;;;;17.13;9.27;;;;;;;;;;5033313;28;20454;-75
2021/09/27 01:20:23;;;;;;;17.77;8.95;;;;;;;;;;5015267;28;20140;-77
2021/09/27 01:23:09;;;;;;;14.00;7.95;;;;;;;;;;5031199;28;20132;-76
2021/09/27 01:25:47;;;;;;;17.65;9.00;;;;;;;;;;5033345;28;20046;-75
2021/09/27 01:28:26;;;;;;;21.95;7.93;;;;;;;;;;5032958;28;20493;-75
2021/09/27 01:30:53;;;;;;;22.70;7.82;;;;;;;;;;5031622;28;20079;-75
2021/09/27 01:33:33;;;;;;;21.42;8.30;;;;;;;;;;5033062;28;20065;-75
2021/09/27 01:36:30;;;;;;;15.15;8.15;;;;;;;;;;5033529;28;20129;-76
2021/09/27 01:39:01;;;;;;;16.33;8.43;;;;;;;;;;5019955;28;20562;-77
2021/09/27 01:41:36;;;;;;;15.85;8.98;;;;;;;;;;5033511;28;20087;-75
2021/09/27 01:44:15;;;;;;;22.20;9.15;;;;;;;;;;5032763;28;20098;-76
2021/09/27 01:46:57;;;;;;;21.48;9.23;;;;;;;;;;5032033;28;20441;-77
2021/09/27 01:49:44;;;;;;;19.15;8.90;;;;;;;;;;5032747;28;20037;-75
2021/09/27 01:52:25;;;;;;;15.20;8.23;;;;;;;;;;5014964;28;20077;-76
2021/09/27 01:55:01;;;;;;;17.85;8.82;;;;;;;;;;5032809;28;20461;-75
2021/09/27 01:57:35;;;;;;;18.90;8.82;;;;;;;;;;5031683;28;20049;-76
2021/09/27 02:00:12;;;;;;;23.02;9.30;;;;;;;;;;5033135;28;20060;-77
2021/09/27 02:02:43;;;;;;;16.70;8.95;;;;;;;;;;5033397;28;20033;-77
2021/09/27 02:05:16;;;;;;;13.55;8.40;;;;;;;;;;5032622;28;20042;-75
2021/09/27 02:07:59;;;;;;;14.55;8.68;;;;;;;;;;5032863;28;20120;-76
2021/09/27 02:10:40;;;;;;;21.35;8.90;;;;;;;;;;5012905;28;20033;-77
2021/09/27 02:13:11;;;;;;;23.65;9.98;;;;;;;;;;5031269;28;20042;-76
2021/09/27 02:15:44;;;;;;;20.73;10.00;;;;;;;;;;5033171;28;20457;-75
2021/09/27 02:18:20;;;;;;;23.23;10.40;;;;;;;;;;5036360;28;20103;-75
2021/09/27 02:20:51;;;;;;;16.83;9.25;;;;;;;;;;5035083;28;20037;-75
2021/09/27 02:23:18;;;;;;;17.92;9.38;;;;;;;;;;5036568;28;20045;-75
2021/09/27 02:25:47;;;;;;;16.77;8.88;;;;;;;;;;5018634;28;20088;-75
2021/09/27 02:28:18;;;;;;;18.30;9.85;;;;;;;;;;5036055;28;20068;-77
2021/09/27 02:30:55;;;;;;;20.30;10.57;;;;;;;;;;5034970;28;20041;-75
2021/09/27 02:33:44;;;;;;;18.20;10.05;;;;;;;;;;5034531;28;20092;-75
2021/09/27 02:36:20;;;;;;;23.42;10.07;;;;;;;;;;5035468;28;20042;-75
2021/09/27 02:38:54;;;;;;;21.02;9.95;;;;;;;;;;5035975;28;20825;-77
2021/09/27 02:41:35;;;;;;;16.10;10.00;;;;;;;;;;5034919;28;20048;-75
2021/09/27 02:44:06;;;;;;;17.33;10.20;;;;;;;;;;5035696;28;20096;-76
2021/09/27 02:46:41;;;;;;;19.48;10.25;;;;;;;;;;5034892;28;20124;-77
2021/09/27 02:49:19;;;;;;;20.30;10.90;;;;;;;;;;5034874;28;20052;-75
2021/09/27 02:51:48;;;;;;;22.75;12.30;;;;;;;;;;5034603;28;20045;-76
2021/09/27 02:54:28;;;;;;;20.83;12.45;;;;;;;;;;5035537;28;20057;-76
2021/09/27 02:57:08;;;;;;;27.85;11.93;;;;;;;;;;5034600;28;20053;-75
2021/09/27 02:59:42;;;;;;;26.42;13.65;;;;;;;;;;5034415;28;20045;-75
2021/09/27 03:02:23;;;;;;;22.35;13.80;;;;;;;;;;5035841;28;20053;-76
2021/09/27 03:04:51;;;;;;;34.22;13.88;;;;;;;;;;5035406;28;20041;-77
2021/09/27 03:07:48;;;;;;;19.75;13.45;;;;;;;;;;5035311;28;20045;-75
2021/09/27 03:10:25;;;;;;;30.90;13.57;;;;;;;;;;5026616;28;20393;-75
2021/09/27 03:13:06;;;;;;;24.60;12.70;;;;;;;;;;5034369;28;20033;-75
2021/09/27 03:15:46;;;;;;;25.58;12.45;;;;;;;;;;5034137;28;20044;-76
2021/09/27 03:18:19;;;;;;;22.90;12.63;;;;;;;;;;5034631;28;20083;-76
2021/09/27 03:21:02;;;;;;;27.40;13.18;;;;;;;;;;5034290;28;20041;-75
2021/09/27 03:23:49;;;;;;;26.70;11.75;;;;;;;;;;5035400;28;20042;-76
2021/09/27 03:26:29;;;;;;;18.27;11.27;;;;;;;;;;5017227;28;20122;-75
2021/09/27 03:29:17;;;;;;;22.33;11.80;;;;;;;;;;5034147;28;20464;-76
2021/09/27 03:31:48;;;;;;;24.05;11.60;;;;;;;;;;5014735;28;20056;-75
2021/09/27 03:34:22;;;;;;;17.50;11.27;;;;;;;;;;5033913;28;20084;-76
2021/09/27 03:37:09;;;;;;;22.63;11.02;;;;;;;;;;5034668;28;20055;-76
2021/09/27 03:39:43;;;;;;;15.15;8.82;;;;;;;;;;5033678;28;20033;-75
2021/09/27 03:42:17;;;;;;;15.32;10.18;;;;;;;;;;5034904;28;20048;-76
2021/09/27 03:44:45;;;;;;;15.95;10.15;;;;;;;;;;5035051;28;20038;-75
2021/09/27 03:47:29;;;;;;;17.70;10.07;;;;;;;;;;5034338;28;20049;-75
2021/09/27 03:50:08;;;;;;;20.65;9.77;;;;;;;;;;5034338;28;20045;-76
2021/09/27 03:52:43;;;;;;;27.75;10.52;;;;;;;;;;5034837;28;20481;-77
2021/09/27 03:55:22;;;;;;;23.70;10.35;;;;;;;;;;5017083;28;20049;-75
2021/09/27 03:58:02;;;;;;;23.92;9.40;;;;;;;;;;5034623;28;20107;-76
2021/09/27 04:00:40;;;;;;;17.35;9.07;;;;;;;;;;5034676;28;20432;-76
2021/09/27 04:03:30;;;;;;;17.27;9.45;;;;;;;;;;5017316;28;20045;-76
2021/09/27 04:05:58;;;;;;;18.70;9.18;;;;;;;;;;5034626;28;20468;-76
2021/09/27 04:08:40;;;;;;;14.07;9.68;;;;;;;;;;5034112;28;20037;-75
2021/09/27 04:11:36;;;;;;;21.38;9.45;;;;;;;;;;5034334;28;20041;-75
2021/09/27 04:14:24;;;;;;;17.75;9.18;;;;;;;;;;5033137;28;20046;-76
2021/09/27 04:17:10;;;;;;;16.27;9.27;;;;;;;;;;5033303;28;20077;-75
2021/09/27 04:20:14;;;;;;;17.30;9.38;;;;;;;;;;5032933;28;20041;-75
2021/09/27 04:22:45;;;;;;;15.20;8.88;;;;;;;;;;4953806;29;20604;-76
2021/09/27 04:25:31;;;;;;;22.70;9.20;;;;;;;;;;4954375;29;20101;-75
2021/09/27 04:28:21;;;;;;;19.55;8.85;;;;;;;;;;4953660;29;20126;-75
2021/09/27 04:31:07;;;;;;;24.17;9.43;;;;;;;;;;4953343;29;20134;-76
2021/09/27 04:33:46;;;;;;;17.00;8.90;;;;;;;;;;4954065;29;20047;-75
2021/09/27 04:36:23;;;;;;;22.10;9.23;;;;;;;;;;4954371;29;20452;-75
2021/09/27 04:38:52;;;;;;;23.17;9.13;;;;;;;;;;4953582;28;20126;-75
2021/09/27 04:41:27;;;;;;;25.25;9.35;;;;;;;;;;4953936;29;20062;-76
2021/09/27 04:44:05;;;;;;;27.15;10.57;;;;;;;;;;4954043;29;20059;-75
2021/09/27 04:46:38;;;;;;;24.30;9.82;;;;;;;;;;4953602;29;20455;-77
2021/09/27 04:49:18;;;;;;;26.13;9.75;;;;;;;;;;4953485;29;20055;-76
2021/09/27 04:51:48;;;;;;;19.83;9.68;;;;;;;;;;4953241;29;20070;-76
2021/09/27 04:54:28;;;;;;;16.92;9.30;;;;;;;;;;4953315;29;20082;-76
2021/09/27 04:56:58;;;;;;;26.02;10.82;;;;;;;;;;5007521;28;20080;-76
2021/09/27 05:03:08;;;;;;;19.73;9.55;;;;;;;;;;5032450;28;20132;-75
2021/09/27 05:05:43;;;;;;;21.63;10.15;;;;;;;;;;4991735;28;20152;-76
2021/09/27 05:08:24;;;;;;;18.23;10.48;;;;;;;;;;5032369;28;20045;-76
2021/09/27 05:11:08;;;;;;;25.35;11.30;;;;;;;;;;5032288;28;20052;-76
2021/09/27 05:14:14;;;;;;;22.15;11.52;;;;;;;;;;5033217;28;20041;-75
2021/09/27 05:17:09;;;;;;;23.48;11.73;;;;;;;;;;4992274;28;20043;-75
2021/09/27 05:19:55;;;;;;;30.00;12.25;;;;;;;;;;4991568;28;20038;-76
2021/09/27 05:22:23;;;;;;;20.38;10.80;;;;;;;;;;4975953;28;20509;-75
2021/09/27 05:25:09;;;;;;;32.60;11.60;;;;;;;;;;4991883;28;20042;-74
2021/09/27 05:27:47;;;;;;;33.97;11.82;;;;;;;;;;4991368;28;20510;-77
2021/09/27 05:30:33;;;;;;;23.23;11.00;;;;;;;;;;4991025;28;20043;-76
2021/09/27 05:33:20;;;;;;;28.58;10.45;;;;;;;;;;4974455;28;20628;-76
2021/09/27 05:36:06;;;;;;;40.03;11.35;;;;;;;;;;4991562;28;20058;-76
2021/09/27 05:38:47;;;;;;;26.45;10.68;;;;;;;;;;4991524;28;20124;-75
2021/09/27 05:41:32;;;;;;;29.92;10.50;;;;;;;;;;4975408;28;20058;-75
2021/09/27 05:44:08;;;;;;;33.35;10.30;;;;;;;;;;4991757;28;20038;-75
2021/09/27 05:46:40;;;;;;;28.10;11.35;;;;;;;;;;4997887;28;20054;-76
2021/09/27 05:49:27;;;;;;;27.60;9.90;;;;;;;;;;5031010;28;20038;-75
2021/09/27 05:52:00;;;;;;;29.25;9.88;;;;;;;;;;5018927;28;20472;-77
2021/09/27 05:54:33;;;;;;;30.40;10.75;;;;;;;;;;5035561;28;20042;-76
2021/09/27 05:57:14;;;;;;;26.00;9.77;;;;;;;;;;5036372;28;20037;-76
2021/09/27 05:59:41;;;;;;;28.73;9.43;;;;;;;;;;5036590;28;20500;-76
2021/09/27 06:02:12;;;;;;;38.78;10.23;;;;;;;;;;5036673;28;20116;-76
2021/09/27 06:04:40;;;;;;;42.25;10.15;;;;;;;;;;5019280;28;20476;-75
2021/09/27 06:07:13;;;;;;;39.15;9.55;;;;;;;;;;5036553;28;20116;-75
2021/09/27 06:09:54;;;;;;;29.92;10.35;;;;;;;;;;5035364;28;20042;-76
2021/09/27 06:12:41;;;;;;;34.25;11.75;;;;;;;;;;5036154;28;20477;-75
2021/09/27 06:15:10;;;;;;;19.30;8.73;;;;;;;;;;5035290;28;20049;-76
2021/09/27 06:17:47;;;;;;;25.23;9.68;;;;;;;;;;5034574;28;20041;-75
2021/09/27 06:20:23;;;;;;;20.52;9.00;;;;;;;;;;5036551;28;20048;-75
2021/09/27 06:22:52;;;;;;;21.92;8.73;;;;;;;;;;5036578;28;20038;-75
2021/09/27 06:25:39;;;;;;;26.67;8.95;;;;;;;;;;5036309;28;20548;-75
2021/09/27 06:28:16;;;;;;;23.30;8.95;;;;;;;;;;5034628;28;20041;-76
2021/09/27 06:31:02;;;;;;;30.05;9.02;;;;;;;;;;5035953;28;20136;-75
2021/09/27 06:33:33;;;;;;;18.58;7.03;;;;;;;;;;5035075;28;20551;-76
2021/09/27 06:36:09;;;;;;;20.52;7.40;;;;;;;;;;5036148;28;20042;-76
2021/09/27 06:38:40;;;;;;;23.23;7.40;;;;;;;;;;5035830;28;20120;-75
2021/09/27 06:41:12;;;;;;;18.77;7.38;;;;;;;;;;5035447;28;20038;-74
2021/09/27 06:43:40;;;;;;;;;;;;;;;;;;5036800;28;20042;-74
2021/09/27 06:46:12;;;;;;;29.17;9.10;;;;;;;;;;5035993;28;19956;-74
2021/09/27 06:48:39;;;;;;;20.60;8.32;;;;;;;;;;5034711;28;20048;-74
2021/09/27 06:51:10;;;;;;;27.80;8.07;;;;;;;;;;5034480;28;20095;-74
2021/09/27 06:53:37;;;;;;;28.75;8.18;;;;;;;;;;5035965;28;20037;-75
2021/09/27 06:56:07;;;;;;;14.45;6.97;;;;;;;;;;5036037;28;20464;-74
2021/09/27 06:58:35;;;;;;;19.42;7.65;;;32.60;59.50;;;;;;5034191;28;20049;-76
2021/09/27 07:01:03;;;;;;;22.60;7.10;;;35.10;60.80;;;;;;5035516;28;20033;-74
2021/09/27 07:03:31;;;;;;;20.00;7.15;;;35.80;49.60;;;;;;5035700;28;20095;-75
2021/09/27 07:05:59;;;;;;;21.52;6.90;;;36.40;46.20;;;;;;5034174;28;20042;-75
2021/09/27 07:08:26;;;;;;;25.42;8.60;;;36.50;44.10;;;;;;5033861;28;20044;-75
2021/09/27 07:10:59;;;;;;;22.05;7.22;;;35.60;43.90;;;;;;5034114;28;20140;-75
2021/09/27 07:13:27;;;;;;;21.38;6.72;;;35.80;43.30;;;;;;5033795;28;20132;-74
2021/09/27 07:15:55;;;;;;;23.48;6.60;;;36.30;43.20;;;;;;5035545;28;20041;-75
2021/09/27 07:18:22;;;;;;;20.13;6.72;;;36.40;42.70;;;;;;5017358;28;20083;-74
2021/09/27 07:20:50;;;;;;;23.75;8.30;;;;;;;;;;5035203;28;20060;-74
2021/09/27 07:23:19;;;;;;;25.98;7.45;;;;;;;;;;5033626;28;20045;-74
2021/09/27 07:25:50;;;;;;;25.77;6.88;;;;;;;;;;5035594;28;20079;-74
2021/09/27 07:28:21;;;;;;;35.23;8.10;;;36.40;42.80;;;;;;5033734;28;20148;-75
2021/09/27 07:30:50;;;;;;;29.58;7.63;;;36.60;37.20;;;;;;5034707;28;20120;-75
2021/09/27 07:33:20;;;;;;;33.92;7.38;;;36.50;37.10;;;;;;5035224;28;20144;-75
2021/09/27 07:35:48;;;;;;;32.17;7.25;;;36.90;34.80;;;;;;5017367;28;20136;-75
2021/09/27 07:38:15;;;;;;;29.02;6.40;;;36.60;36.30;;;;;;5033487;28;20084;-75
2021/09/27 07:40:46;;;;;;;24.98;6.72;;;36.50;35.70;;;;;;5035155;28;20041;-76
2021/09/27 07:43:13;;;;;;;21.38;6.15;;;36.80;36.10;;;;;;5035072;28;20163;-75
2021/09/27 07:45:41;;;;;;;23.30;6.00;;;;;;;;;;5033248;28;20046;-75
2021/09/27 07:48:13;;;;;;;28.85;6.20;;;36.60;36.80;;;;;;5035218;28;20039;-76
2021/09/27 07:50:50;;;;;;;27.13;6.28;;;35.50;40.10;;;;;;5033417;28;20384;-74
2021/09/27 07:53:18;;;;;;;26.05;6.28;;;35.80;39.60;;;;;;5034590;28;20096;-75
2021/09/27 07:55:50;;;;;;;23.60;6.22;;;35.50;39.30;;;;;;5034746;28;20128;-74
2021/09/27 07:58:19;;;;;;;27.02;6.20;;;35.60;39.60;;;;;;5033344;28;20103;-75
2021/09/27 08:00:52;;;;;;;18.88;5.78;;;35.50;39.30;;;;;;5033021;28;20037;-74
2021/09/27 08:03:23;;;;;;;18.98;6.20;;;35.50;39.10;;;;;;5033414;28;20037;-75
2021/09/27 08:05:51;;;;;;;28.67;6.68;;;35.10;39.80;;;;;;5034105;28;20045;-75
2021/09/27 08:08:21;;;;;;;17.42;6.00;;;35.60;39.30;;;;;;5033062;28;20046;-75
2021/09/27 08:10:48;;;;;;;24.35;6.00;;;35.70;38.90;;;;;;5016652;28;20501;-74
2021/09/27 08:13:16;;;;;;;23.35;6.15;;;;;;;;;;5033672;28;20049;-75
2021/09/27 08:15:48;;;;;;;25.25;6.65;;;;;;;;;;5033853;28;20037;-74
2021/09/27 08:18:17;;;;;;;23.98;5.93;;;35.70;38.50;;;;;;5032771;28;20080;-75
2021/09/27 08:21:09;;;;;;;22.05;6.03;;;36.50;37.10;;;;;;5032651;28;20123;-75
2021/09/27 08:23:37;;;;;;;23.92;6.10;;;36.30;36.90;;;;;;5033105;28;20041;-74
2021/09/27 08:26:05;;;;;;;22.33;6.20;;;36.20;36.80;;;;;;5033678;28;20048;-74
2021/09/27 08:28:36;;;;;;;28.73;6.75;;;36.40;36.40;;;;;;5034166;28;20049;-74
2021/09/27 08:31:06;;;;;;;22.70;5.75;;;;;;;;;;5097911;23;20149;-69
2021/09/27 08:33:34;;;;;;;23.05;5.57;;;;;;;;;;5014244;28;20112;-70
2021/09/27 08:36:06;;;;;;;24.63;6.40;;;36.60;35.70;;;;;;5014164;28;20042;-78
2021/09/27 08:38:38;;;;;;;22.52;5.85;;;36.30;36.40;;;;;;5013933;28;20038;-69
2021/09/27 08:41:28;;;;;;;;;;;36.90;34.90;;;;;;5014882;28;20511;-78
2021/09/27 08:44:34;;;;;;;29.40;6.30;;;37.40;33.40;;;;;;5013580;28;19922;-70
2021/09/27 08:47:13;;;;;;;26.73;6.07;;;37.20;32.80;;;;;;5013810;28;20049;-78
2021/09/27 08:50:11;;;;;;;25.02;6.20;;;37.20;33.00;;;;;;5013670;28;20042;-69
2021/09/27 08:52:40;;;;;;;29.45;6.63;;;36.50;34.40;;;;;;5028563;28;20049;-69
2021/09/27 08:55:12;;;;;;;29.70;6.68;;;36.60;34.10;;;;;;5013837;28;20056;-77
2021/09/27 08:58:02;;;;;;;28.60;5.93;;;36.60;33.90;;;;;;5013248;28;20073;-70
2021/09/27 09:00:53;;;;;;;25.10;6.07;;;37.20;32.90;;;;;;5013468;28;20050;-70
2021/09/27 09:03:27;;;;;;;23.05;6.38;;;;;;;;;;5013918;28;20042;-70
2021/09/27 09:06:05;;;;;;;28.38;7.10;;;;;;;;;;5013568;28;20041;-69
2021/09/27 09:08:44;;;;;;;29.65;7.10;;;;;;;;;;5013516;28;20038;-77
2021/09/27 09:11:20;;;;;;;36.30;6.90;;;;;;;;;;5011982;28;20551;-78
2021/09/27 09:13:52;;;;;;;27.25;6.50;;;;;;;;;;5013478;28;20053;-72
2021/09/27 09:16:21;;;;;;;27.92;7.50;;;;;;;;;;5013538;28;20068;-78
2021/09/27 09:19:00;;;;;;;30.80;7.07;;;37.50;31.30;;;;;;5013529;28;20046;-70
2021/09/27 09:21:41;;;;;;;17.13;5.90;;;37.20;33.80;;;;;;5013505;28;20034;-78
2021/09/27 09:24:24;;;;;;;25.60;6.40;;;38.20;32.50;;;;;;5013073;28;20042;-78
2021/09/27 09:26:58;;;;;;;24.80;6.00;;;37.80;33.10;;;;;;5012919;28;20038;-78
2021/09/27 09:29:29;;;;;;;28.38;6.20;;;38.30;32.40;;;;;;5011948;28;20050;-78
2021/09/27 09:32:11;;;;;;;28.92;6.13;;;39.30;32.60;;;;;;5012106;28;20592;-70
2021/09/27 09:34:38;;;;;;;22.23;5.88;;;39.30;30.60;;;;;;5012698;28;20476;-70
2021/09/27 09:37:21;;;;;;;19.98;6.03;;;39.10;30.20;;;;;;5013329;28;20445;-70
2021/09/27 09:40:06;;;;;;;21.83;5.72;;;;;;;;;;5013753;28;20420;-77
2021/09/27 09:42:35;;;;;;;24.70;5.63;;;37.80;32.00;;;;;;5013007;28;20363;-70
2021/09/27 09:45:32;;;;;;;22.77;6.00;;;37.40;33.20;;;;;;5013594;28;20138;-78
2021/09/27 09:48:29;;;;;;;21.42;5.88;;;37.50;33.00;;;;;;5012288;28;20062;-70
2021/09/27 09:51:17;;;;;;;21.35;5.25;;;38.00;31.60;;;;;;5008729;28;20054;-77
2021/09/27 09:54:01;;;;;;;22.73;5.55;;;38.30;31.00;;;;;;5013141;28;20457;-74
2021/09/27 09:56:34;;;;;;;22.48;5.82;;;38.30;31.10;;;;;;5012840;28;20065;-70
2021/09/27 09:59:22;;;;;;;17.27;4.73;;;38.70;29.60;;;;;;5013153;28;20046;-69
2021/09/27 10:01:53;;;;;;;26.38;6.32;;;38.50;30.00;;;;;;5012636;28;20050;-78
2021/09/27 10:04:23;;;;;;;;;;;38.80;29.30;;;;;;5013791;28;20160;-70
2021/09/27 10:06:59;;;;;;;25.05;5.53;;;38.50;29.70;;;;;;5012954;28;19932;-70
2021/09/27 10:09:34;;;;;;;21.90;5.55;;;38.50;30.00;;;;;;5012136;28;20117;-70
2021/09/27 10:12:05;;;;;;;27.60;6.20;;;;;;;;;;5012587;28;20046;-78
2021/09/27 10:14:42;;;;;;;24.55;6.00;;;;;;;;;;5012201;28;20046;-77
2021/09/27 10:17:26;;;;;;;31.10;6.70;;;;;;;;;;5012463;28;20224;-78
2021/09/27 10:20:07;;;;;;;25.23;7.18;;;38.50;30.70;;;;;;5012280;28;20096;-78
2021/09/27 10:22:39;;;;;;;25.70;6.07;;;39.30;29.00;;;;;;5012774;28;20121;-70
2021/09/27 10:25:29;;;;;;;22.15;6.40;;;39.80;28.80;;;;;;5012731;28;20124;-78
2021/09/27 10:27:58;;;;;;;29.40;6.68;;;39.70;28.40;;;;;;5008976;28;20108;-69
2021/09/27 10:30:38;;;;;;;23.77;6.18;;;39.40;28.50;;;;;;5012662;28;20054;-70
2021/09/27 10:33:22;;;;;;;20.08;5.75;;;39.80;28.60;;;;;;5012489;28;20062;-78
2021/09/27 10:35:58;;;;;;;25.02;5.78;;;40.60;27.20;;;;;;5012281;28;20073;-78
2021/09/27 10:38:40;;;;;;;15.18;5.07;;;40.80;27.00;;;;;;5015836;28;20061;-78
2021/09/27 10:41:18;;;;;;;26.83;5.57;;;40.50;27.20;;;;;;5016267;28;20038;-70
2021/09/27 10:43:47;;;;;;;21.73;5.35;;;41.50;26.10;;;;;;5016562;28;20421;-77
2021/09/27 10:46:18;;;;;;;33.10;6.30;;;42.20;25.00;;;;;;5015861;28;20045;-78
2021/09/27 10:48:51;;;;;;;27.40;5.72;;;42.20;25.50;;;;;;5016006;28;20034;-70
2021/09/27 10:51:25;;;;;;;30.60;6.28;;;42.30;24.60;;;;;;5015959;28;20485;-78
2021/09/27 10:54:23;;;;;;;27.77;5.90;;;42.10;24.50;;;;;;5014587;28;20050;-70
2021/09/27 10:56:57;;;;;;;19.70;5.35;;;42.00;24.60;;;;;;5007469;28;20060;-70
2021/09/27 10:59:53;;;;;;;27.85;5.50;;;42.20;24.50;;;;;;5015789;28;20076;-78
2021/09/27 11:02:42;;;;;;;20.65;6.18;;;;;;;;;;5012934;28;20085;-70
2021/09/27 11:05:25;;;;;;;25.38;8.02;;;;;;;;;;5014300;28;20165;-76
2021/09/27 11:07:57;;;;;;;18.65;6.97;;;;;;;;;;5013867;28;20132;-79
2021/09/27 11:10:30;;;;;;;21.98;7.38;;;;;;;;;;5015665;28;20065;-78
2021/09/27 11:13:00;;;;;;;22.45;7.53;;;;;;;;;;5013875;28;20128;-78
2021/09/27 11:15:39;;;;;;;20.90;7.65;;;;;;;;;;5014992;28;20062;-78
2021/09/27 11:18:09;;;;;;;18.98;7.93;;;;;;;;;;5015404;28;20052;-78
2021/09/27 11:20:40;;;;;;;25.77;7.65;;;;;;;;;;5015119;28;20050;-79
2021/09/27 11:23:09;;;;;;;22.50;7.30;;;;;;;;;;5015385;28;20117;-78
2021/09/27 11:25:38;;;;;;;24.77;7.93;;;;;;;;;;5015672;28;20059;-77
2021/09/27 11:28:12;;;;;;;24.10;8.07;;;;;;;;;;5015308;28;20504;-78
2021/09/27 11:30:55;;;;;;;21.98;7.80;;;;;;;;;;5014882;28;20050;-78
2021/09/27 11:33:34;;;;;;;21.95;8.55;;;;;;;;;;4992435;28;20054;-72
2021/09/27 11:36:14;;;;;;;20.30;7.00;;;;;;;;;;4992733;28;20046;-72
2021/09/27 11:38:45;;;;;;;19.42;7.25;;;;;;;;;;5007555;28;20047;-73
2021/09/27 11:41:13;;;;;;;25.13;8.38;;;;;;;;;;4992303;28;20148;-72
2021/09/27 11:43:45;;;;;;;23.45;7.70;;;;;;;;;;4991726;28;20035;-71
2021/09/27 11:46:23;;;;;;;21.73;7.22;;;;;;;;;;4992264;28;20113;-71
2021/09/27 11:48:59;;;;;;;25.65;8.05;;;;;;;;;;4991315;28;20050;-72
2021/09/27 11:51:41;;;;;;;20.88;8.13;;;;;;;;;;5005728;28;20569;-79
2021/09/27 11:54:15;;;;;;;17.77;8.55;;;;;;;;;;5006960;28;20046;-79
2021/09/27 11:56:47;;;;;;;16.20;7.70;;;;;;;;;;5013169;28;20056;-72
2021/09/27 11:59:40;;;;;;;21.85;8.35;;;;;;;;;;5014181;28;20073;-72
2021/09/27 12:02:08;;;;;;;22.08;8.23;;;;;;;;;;5014825;28;20136;-72
2021/09/27 12:04:35;;;;;;;22.10;7.57;;;;;;;;;;5014494;28;20040;-79
2021/09/27 12:07:07;;;;;;;19.08;7.65;;;;;;;;;;5012962;28;20038;-72
2021/09/27 12:09:34;;;;;;;26.98;8.48;;;;;;;;;;5014712;28;20452;-79
2021/09/27 12:12:06;;;;;;;21.20;7.43;;;;;;;;;;5014486;28;20152;-71
2021/09/27 12:14:42;;;;;;;21.88;7.43;;;;;;;;;;5014436;28;20049;-72
2021/09/27 12:17:13;;;;;;;16.92;7.00;;;;;;;;;;5013370;28;20480;-79
2021/09/27 12:19:48;;;;;;;19.80;7.38;;;;;;;;;;5014447;28;20049;-79
2021/09/27 12:22:29;;;;;;;20.58;7.45;;;;;;;;;;5013338;28;20038;-78
2021/09/27 12:24:59;;;;;;;14.33;6.83;;;;;;;;;;5027771;28;20073;-79
2021/09/27 12:27:28;;;;;;;20.83;7.50;;;;;;;;;;5014397;28;20057;-72
2021/09/27 12:30:08;;;;;;;14.63;7.43;;;;;;;;;;5014496;28;20038;-78
2021/09/27 12:32:44;;;;;;;19.63;6.82;;;;;;;;;;5013279;28;20137;-79
2021/09/27 12:35:23;;;;;;;20.70;6.80;;;;;;;;;;5013370;28;20096;-79
2021/09/27 12:37:53;;;;;;;19.55;6.57;;;;;;;;;;5014599;28;20132;-79
2021/09/27 12:40:25;;;;;;;22.70;6.18;;;;;;;;;;4996885;28;20069;-80
2021/09/27 12:42:54;;;;;;;18.63;6.65;;;;;;;;;;5014406;28;20042;-72
2021/09/27 12:45:37;;;;;;;20.15;6.72;;;;;;;;;;5014011;28;20041;-75
2021/09/27 12:48:08;;;;;;;20.23;6.65;;;;;;;;;;5013743;28;20038;-71
2021/09/27 12:50:40;;;;;;;19.20;7.20;;;;;;;;;;5013290;28;20046;-71
2021/09/27 12:53:09;;;;;;;19.75;7.25;;;;;;;;;;5014254;28;20473;-79
2021/09/27 12:55:41;;;;;;;16.08;6.60;;;;;;;;;;5014357;28;20049;-79
2021/09/27 12:58:13;;;;;;;19.17;7.43;;;;;;;;;;5013706;28;20580;-72
2021/09/27 13:00:43;;;;;;;21.63;7.25;;;;;;;;;;5013479;28;20046;-79
2021/09/27 13:03:17;;;;;;;19.20;7.32;;;;;;;;;;5012902;28;20042;-79
2021/09/27 13:05:59;;;;;;;20.77;7.35;;;;;;;;;;5013751;28;20501;-71
2021/09/27 13:08:40;;;;;;;20.10;7.65;;;;;;;;;;5013736;28;20038;-79
2021/09/27 13:11:28;;;;;;;20.38;7.65;;;;;;;;;;5013016;28;20400;-79
2021/09/27 13:14:01;;;;;;;24.20;7.75;;;;;;;;;;5013601;28;20046;-79
2021/09/27 13:16:32;;;;;;;18.73;7.13;;;;;;;;;;5013375;28;20073;-71
2021/09/27 13:19:02;;;;;;;12.95;7.15;;;;;;;;;;5014119;28;20052;-79
2021/09/27 13:21:44;;;;;;;15.80;7.28;;;;;;;;;;5013563;28;20044;-71
2021/09/27 13:24:18;;;;;;;21.65;7.28;;;;;;;;;;5013797;28;20068;-72
2021/09/27 13:27:05;;;;;;;21.00;7.68;;;;;;;;;;5013675;28;20442;-72
2021/09/27 13:29:41;;;;;;;15.73;7.10;;;;;;;;;;5013656;28;20037;-71
2021/09/27 13:32:14;;;;;;;19.75;6.80;;;;;;;;;;5012955;28;20481;-72
2021/09/27 13:34:46;;;;;;;15.02;7.22;;;;;;;;;;5013208;28;20070;-78
2021/09/27 13:37:25;;;;;;;24.88;7.30;;;;;;;;;;5012935;28;20129;-76
2021/09/27 13:39:55;;;;;;;24.02;7.10;;;;;;;;;;5011127;28;20497;-71
2021/09/27 13:42:41;;;;;;;16.58;6.47;;;;;;;;;;5013261;28;20045;-70
2021/09/27 13:45:10;;;;;;;21.27;7.13;;;;;;;;;;5012471;28;20121;-70
2021/09/27 13:47:38;;;;;;;13.95;6.35;;;;;;;;;;5007998;28;20079;-77
2021/09/27 13:50:05;;;;;;;12.60;6.10;;;;;;;;;;5012936;28;20569;-72
2021/09/27 13:52:39;;;;;;;17.65;6.50;;;;;;;;;;5010710;28;20049;-70
2021/09/27 13:55:07;;;;;;;13.38;6.70;;;;;;;;;;5008245;28;20588;-71
2021/09/27 13:57:35;;;;;;;15.18;6.03;;;;;;;;;;5011855;28;20042;-80
2021/09/27 14:00:09;;;;;;;12.10;5.43;;;;;;;;;;5013025;28;20045;-77
2021/09/27 14:02:38;;;;;;;18.38;6.45;;;;;;;;;;5005685;28;20042;-77
2021/09/27 14:05:07;;;;;;;15.65;6.35;;;;;;;;;;5012352;28;20171;-71
2021/09/27 14:07:34;;;;;;;12.73;6.05;;;;;;;;;;5011219;28;20044;-71
2021/09/27 14:10:04;;;;;;;22.17;6.53;;;;;;;;;;5012382;28;20396;-76
2021/09/27 14:12:35;;;;;;;13.23;6.00;;;;;;;;;;5016036;28;20068;-70
2021/09/27 14:15:04;;;;;;;19.20;6.25;;;;;;;;;;5016482;28;20381;-70
2021/09/27 14:17:39;;;;;;;14.48;5.70;;;;;;;;;;5014006;28;20054;-77
2021/09/27 14:20:08;;;;;;;16.02;6.13;;;;;;;;;;5016602;28;20506;-76
2021/09/27 14:22:37;;;;;;;17.27;6.32;;;;;;;;;;5017006;28;20058;-75
2021/09/27 14:25:06;;;;;;;13.57;6.57;;;;;;;;;;5016919;28;20545;-75
2021/09/27 14:27:34;;;;;;;20.17;6.70;;;;;;;;;;5016362;28;20048;-75
2021/09/27 14:30:06;;;;;;;;;;;;;;;;;;5016850;28;20069;-75
2021/09/27 14:32:33;;;;;;;16.38;6.40;;;;;;;;;;5016546;28;20471;-76
2021/09/27 14:35:02;;;;;;;14.20;6.93;;;;;;;;;;5016795;28;20492;-76
2021/09/27 14:37:32;;;;;;;16.65;6.32;;;;;;;;;;5016178;28;20489;-76
2021/09/27 14:40:04;;;;;;;18.13;6.82;;;;;;;;;;5016834;28;20121;-75
2021/09/27 14:42:32;;;;;;;17.33;7.15;;;;;;;;;;5016263;28;20050;-75
2021/09/27 14:44:59;;;;;;;16.65;6.70;;;;;;;;;;5016258;28;20041;-74
2021/09/27 14:47:32;;;;;;;16.63;7.60;;;;;;;;;;5016006;28;20508;-75
2021/09/27 14:50:00;;;;;;;18.98;6.75;;;;;;;;;;5016325;28;20042;-75
2021/09/27 14:52:28;;;;;;;22.08;7.25;;;;;;;;;;5016342;28;20042;-76